Ivan Poddubny — UDVP — position and weather

sailwx.info

Track history (hours):
 
Tides and Currents Weather Stations Pressure Air Temp Water Temp Dewpoint Dewpoint Depression Visibility Wind Speed Wind Dir Waves Ship Positions

Ivan Poddubny

Last reported at 2017-Oct-18 08:57 UTC. Time now 2017-Oct-18 12:56 UTC.
Position N 45°11' E 036°34'.

; draft 6 m.

Type: Ship. MMSI: 273358190.

Date/timePositionNaut miles runAvg speedWind from/ knotsBaromVisibWave heightAir tempDewpointWater temp
2017-Oct-18 08:57N 45°11' E 036°34'0 0.0
2017-Oct-18 08:21N 45°11' E 036°34'0 0.1
2017-Oct-18 07:57N 45°11' E 036°34'0 0.0
2017-Oct-18 07:30N 45°11' E 036°34'0 0.0
2017-Oct-18 07:00N 45°11' E 036°34'0 0.0
2017-Oct-18 06:30N 45°11' E 036°34'0 0.0
2017-Oct-18 06:00N 45°11' E 036°34'0 0.0
2017-Oct-18 05:30N 45°11' E 036°34'2 4.1
2017-Oct-18 04:59N 45°09' E 036°32'5 0.6
2017-Oct-17 21:57N 45°12' E 036°28'4 8.6
2017-Oct-17 21:30N 45°16' E 036°27'4 7.9
2017-Oct-17 20:58N 45°19' E 036°32'4 9.6
2017-Oct-17 20:30N 45°21' E 036°38'3 6.7
2017-Oct-17 20:00N 45°23' E 036°41'0 0.2
2017-Oct-17 19:30N 45°23' E 036°41'0 0.0
2017-Oct-17 18:57N 45°23' E 036°41'0 0.0
2017-Oct-17 18:30N 45°23' E 036°41'0 0.0
2017-Oct-17 18:00N 45°23' E 036°41'0 0.0
2017-Oct-17 17:30N 45°23' E 036°41'0 0.0
2017-Oct-17 17:00N 45°23' E 036°41'0 0.0
2017-Oct-17 16:27N 45°23' E 036°41'0 0.0
2017-Oct-17 15:57N 45°23' E 036°41'0 0.0
2017-Oct-17 15:27N 45°23' E 036°41'0 0.0
2017-Oct-17 15:00N 45°23' E 036°41'0 0.0
2017-Oct-17 14:30N 45°23' E 036°41'0 0.0
2017-Oct-17 14:00N 45°23' E 036°41'0 0.0
2017-Oct-17 13:30N 45°23' E 036°41'0 0.0
2017-Oct-17 13:00N 45°23' E 036°41'0 0.0
2017-Oct-17 12:27N 45°23' E 036°41'0 0.0
2017-Oct-17 12:00N 45°23' E 036°41'0 0.0
2017-Oct-17 11:30N 45°23' E 036°41'0 0.0
2017-Oct-17 11:00N 45°23' E 036°41'0 0.0
2017-Oct-17 10:30N 45°23' E 036°41'0 0.0
2017-Oct-17 10:00N 45°23' E 036°41'0 0.0
2017-Oct-17 09:30N 45°23' E 036°41'0 0.0
2017-Oct-17 09:00N 45°23' E 036°41'0 0.0
2017-Oct-17 08:30N 45°23' E 036°41'0 0.0
2017-Oct-17 08:00N 45°23' E 036°41'0 0.0
2017-Oct-17 07:30N 45°23' E 036°41'0 0.0
2017-Oct-17 07:00N 45°23' E 036°41'0 0.0
2017-Oct-17 06:30N 45°23' E 036°41'0 0.0
2017-Oct-17 06:00N 45°23' E 036°41'0 0.0
2017-Oct-17 05:31N 45°23' E 036°41'0 0.0
2017-Oct-17 05:00N 45°23' E 036°41'0 0.0
2017-Oct-17 04:30N 45°23' E 036°41'0 0.0
2017-Oct-17 04:00N 45°23' E 036°41'0 0.0
2017-Oct-17 03:31N 45°23' E 036°41'0 0.0
2017-Oct-17 03:00N 45°23' E 036°41'0 0.0
2017-Oct-17 02:30N 45°23' E 036°41'0 0.0
2017-Oct-17 02:00N 45°23' E 036°41'0 0.1
2017-Oct-17 01:30N 45°23' E 036°41'0 0.0
2017-Oct-17 00:59N 45°23' E 036°41'0 0.0
2017-Oct-17 00:30N 45°23' E 036°41'0 0.0
2017-Oct-17 00:00N 45°23' E 036°41'0 0.0
2017-Oct-16 23:30N 45°23' E 036°41'0 0.0
2017-Oct-16 23:00N 45°23' E 036°41'0 0.0
2017-Oct-16 22:30N 45°23' E 036°41'0 0.0
2017-Oct-16 22:00N 45°23' E 036°41'0 0.0
2017-Oct-16 21:30N 45°23' E 036°41'0 0.0
2017-Oct-16 21:00N 45°23' E 036°41'0 0.0
2017-Oct-16 20:30N 45°23' E 036°41'0 0.0
2017-Oct-16 20:00N 45°23' E 036°41'0 0.0
2017-Oct-16 19:30N 45°23' E 036°41'0 0.0
2017-Oct-16 18:59N 45°23' E 036°41'0 0.0
2017-Oct-16 18:30N 45°23' E 036°41'0 0.0
2017-Oct-16 18:00N 45°23' E 036°41'0 0.0
2017-Oct-16 17:30N 45°23' E 036°41'0 0.0
2017-Oct-16 17:00N 45°23' E 036°41'0 0.0
2017-Oct-16 16:30N 45°23' E 036°41'0 0.0
2017-Oct-16 16:00N 45°23' E 036°41'0 0.0
2017-Oct-16 15:30N 45°23' E 036°41'0 0.0
2017-Oct-16 15:00N 45°23' E 036°41'0 0.0
2017-Oct-16 14:30N 45°23' E 036°41'0 0.0
2017-Oct-16 13:30N 45°23' E 036°41'0 0.0
2017-Oct-16 13:00N 45°23' E 036°41'0 0.0
2017-Oct-16 12:30N 45°23' E 036°41'0 0.0
2017-Oct-16 12:00N 45°23' E 036°41'0 0.0
2017-Oct-16 11:31N 45°23' E 036°41'0 0.0
2017-Oct-16 11:00N 45°23' E 036°41'0 0.0
2017-Oct-16 10:30N 45°23' E 036°41'0 0.0
2017-Oct-16 09:59N 45°23' E 036°41'0 0.0
2017-Oct-16 09:30N 45°23' E 036°41'0 0.0
2017-Oct-16 09:00N 45°23' E 036°41'0 0.0
2017-Oct-16 08:30N 45°23' E 036°41'0 0.0
2017-Oct-16 08:00N 45°23' E 036°41'0 0.0
2017-Oct-16 07:29N 45°23' E 036°41'0 0.0
2017-Oct-16 07:00N 45°23' E 036°41'0 0.0
2017-Oct-16 06:30N 45°23' E 036°41'0 0.0
2017-Oct-16 06:00N 45°23' E 036°41'0 0.0
2017-Oct-16 05:30N 45°23' E 036°41'0 0.0
2017-Oct-16 05:00N 45°23' E 036°41'0 0.0
2017-Oct-16 04:30N 45°23' E 036°41'0 0.0
2017-Oct-16 04:00N 45°23' E 036°41'0 0.0
2017-Oct-16 03:31N 45°23' E 036°41'0 0.0
2017-Oct-16 03:00N 45°23' E 036°41'0 0.0
2017-Oct-16 02:30N 45°23' E 036°41'0 0.0
2017-Oct-16 02:00N 45°23' E 036°41'0 0.0
2017-Oct-16 01:29N 45°23' E 036°41'0 0.0
2017-Oct-16 01:00N 45°23' E 036°41'0 0.0
2017-Oct-16 00:30N 45°23' E 036°41'0 0.0
2017-Oct-15 23:59N 45°23' E 036°41'0 0.0
2017-Oct-15 23:30N 45°23' E 036°41'0 0.0
2017-Oct-15 23:00N 45°23' E 036°41'0 0.1
2017-Oct-15 22:30N 45°23' E 036°41'0 0.1
2017-Oct-15 22:00N 45°23' E 036°41'0 0.0
2017-Oct-15 21:30N 45°23' E 036°41'0 0.0
2017-Oct-15 20:59N 45°23' E 036°41'0 0.0
2017-Oct-15 20:30N 45°23' E 036°41'0 0.0
2017-Oct-15 20:00N 45°23' E 036°41'0 0.0
2017-Oct-15 19:30N 45°23' E 036°41'0 0.0
2017-Oct-15 19:00N 45°23' E 036°41'0 0.0
2017-Oct-15 18:30N 45°23' E 036°41'0 0.0
2017-Oct-15 17:59N 45°23' E 036°41'0 0.0
2017-Oct-15 17:30N 45°23' E 036°41'0 0.0
2017-Oct-15 17:00N 45°23' E 036°41'0 0.0
2017-Oct-15 16:30N 45°23' E 036°41'0 0.1
2017-Oct-15 16:00N 45°23' E 036°41'0 0.0
2017-Oct-15 15:30N 45°23' E 036°41'1 1.5
2017-Oct-15 15:00N 45°23' E 036°40'9 8.9
2017-Oct-15 14:00N 45°18' E 036°30'5 8.5
2017-Oct-15 13:24N 45°13' E 036°28'3 1.5
2017-Oct-15 11:43N 45°11' E 036°29'0 0.1
2017-Oct-15 11:16N 45°11' E 036°29'1 2.2
2017-Oct-15 10:58N 45°10' E 036°29'4 8.4
2017-Oct-15 10:30N 45°07' E 036°32'0 0.0
2017-Oct-15 00:22N 45°07' E 036°32'2 6.2
2017-Oct-15 00:00N 45°09' E 036°32'2 3.3
2017-Oct-14 23:30N 45°11' E 036°32'0 0.1
2017-Oct-14 22:57N 45°11' E 036°33'0 0.0
2017-Oct-14 22:18N 45°11' E 036°33'0 0.0
2017-Oct-14 22:00N 45°11' E 036°33'0 0.0
2017-Oct-14 21:12N 45°11' E 036°33'0 0.0
2017-Oct-14 20:54N 45°11' E 036°33'0 0.0
2017-Oct-14 20:30N 45°11' E 036°33'0 0.0
2017-Oct-14 19:21N 45°11' E 036°33'0 0.0
2017-Oct-14 19:00N 45°11' E 036°33'0 0.0
2017-Oct-14 18:30N 45°11' E 036°33'0 0.0
2017-Oct-14 17:21N 45°11' E 036°33'0 0.0
2017-Oct-14 17:00N 45°11' E 036°33'0 0.0
2017-Oct-14 14:24N 45°11' E 036°33'0 0.0
2017-Oct-14 13:54N 45°11' E 036°33'0 0.0
2017-Oct-14 13:30N 45°11' E 036°33'0 0.0
2017-Oct-14 12:57N 45°11' E 036°33'0 0.0
2017-Oct-14 12:00N 45°11' E 036°33'0 0.0
2017-Oct-14 11:18N 45°11' E 036°33'0 0.0
2017-Oct-14 10:51N 45°11' E 036°33'0 0.0
2017-Oct-14 10:30N 45°11' E 036°33'0 0.0
2017-Oct-14 10:00N 45°11' E 036°33'0 0.0
2017-Oct-14 07:45N 45°11' E 036°33'0 0.0
2017-Oct-14 07:24N 45°11' E 036°33'0 0.0
2017-Oct-14 07:00N 45°11' E 036°33'0 0.0
2017-Oct-14 06:30N 45°11' E 036°33'0 0.0
2017-Oct-14 06:00N 45°11' E 036°33'0 0.0
2017-Oct-14 05:24N 45°11' E 036°33'0 0.0
2017-Oct-14 05:00N 45°11' E 036°33'0 0.0
2017-Oct-14 04:30N 45°11' E 036°33'0 0.0
2017-Oct-14 03:51N 45°11' E 036°33'0 0.0
2017-Oct-14 03:18N 45°11' E 036°33'0 0.0
2017-Oct-14 02:57N 45°11' E 036°33'0 0.0
2017-Oct-14 01:27N 45°11' E 036°32'0 0.0
2017-Oct-14 01:00N 45°11' E 036°32'0 0.0
2017-Oct-14 00:27N 45°11' E 036°32'0 0.0
2017-Oct-13 23:57N 45°11' E 036°32'0 0.0
2017-Oct-13 23:30N 45°11' E 036°33'0 0.0
2017-Oct-13 02:17N 45°11' E 036°32'0 0.0
2017-Oct-13 01:56N 45°11' E 036°32'0 0.0
2017-Oct-13 01:29N 45°11' E 036°32'0 0.0
2017-Oct-12 22:20N 45°11' E 036°32'0 0.0
2017-Oct-12 19:50N 45°11' E 036°32'0 0.0
2017-Oct-12 08:20N 45°11' E 036°32'0 0.0
2017-Oct-12 07:53N 45°11' E 036°32'0 0.0
2017-Oct-12 06:32N 45°11' E 036°32'0 0.0
2017-Oct-12 06:29N 45°11' E 036°32'0 0.0
2017-Oct-12 05:59N 45°11' E 036°32'0 0.0
2017-Oct-12 05:29N 45°11' E 036°32'0 0.0
2017-Oct-12 04:59N 45°11' E 036°32'0 0.0
2017-Oct-12 04:29N 45°11' E 036°32'0 0.0
2017-Oct-12 03:35N 45°11' E 036°32'0 0.1
2017-Oct-12 03:29N 45°11' E 036°32'0 0.0
2017-Oct-12 02:23N 45°11' E 036°32'0 0.0
2017-Oct-12 01:59N 45°11' E 036°32'0 0.0
2017-Oct-12 01:20N 45°11' E 036°32'0 0.0
2017-Oct-12 00:20N 45°11' E 036°32'0 0.0
2017-Oct-11 23:59N 45°11' E 036°32'0 0.0
2017-Oct-11 23:29N 45°11' E 036°32'0 0.0
2017-Oct-11 22:26N 45°11' E 036°32'0 0.0
2017-Oct-11 21:59N 45°11' E 036°32'0 0.0
2017-Oct-11 21:23N 45°11' E 036°32'0 0.0
2017-Oct-11 20:44N 45°11' E 036°32'0 0.0
2017-Oct-11 20:29N 45°11' E 036°32'0 0.0
2017-Oct-11 19:59N 45°11' E 036°32'0 0.0
2017-Oct-11 19:29N 45°11' E 036°32'0 0.0
2017-Oct-11 18:56N 45°11' E 036°32'0 0.0
2017-Oct-11 18:14N 45°11' E 036°32'0 0.0
2017-Oct-11 17:56N 45°11' E 036°32'0 0.0
2017-Oct-11 17:14N 45°11' E 036°32'0 0.0
2017-Oct-11 16:53N 45°11' E 036°32'0 0.0
2017-Oct-10 23:59N 45°11' E 036°32'0 0.0
2017-Oct-10 23:29N 45°11' E 036°32'0 0.0
2017-Oct-10 22:53N 45°11' E 036°32'0 0.0
2017-Oct-10 22:26N 45°11' E 036°32'0 0.0
2017-Oct-10 21:59N 45°11' E 036°32'0 0.0
2017-Oct-10 21:29N 45°11' E 036°32'0 0.0
2017-Oct-10 20:56N 45°11' E 036°32'0 0.0
2017-Oct-10 20:29N 45°11' E 036°32'0 0.0
2017-Oct-10 19:59N 45°11' E 036°32'0 0.0
2017-Oct-10 19:26N 45°11' E 036°32'0 0.0
2017-Oct-10 18:56N 45°11' E 036°32'0 0.0
2017-Oct-10 18:26N 45°11' E 036°32'0 0.0
2017-Oct-10 17:56N 45°11' E 036°32'0 0.0
2017-Oct-10 17:29N 45°11' E 036°32'0 0.0
2017-Oct-10 16:56N 45°11' E 036°32'0 0.1
2017-Oct-10 16:29N 45°11' E 036°32'0 0.1
2017-Oct-10 15:47N 45°11' E 036°32'0 0.0
2017-Oct-10 15:29N 45°11' E 036°32'0 0.1
2017-Oct-10 14:59N 45°11' E 036°32'0 0.0
2017-Oct-10 11:26N 45°11' E 036°32'0 0.1
2017-Oct-10 10:59N 45°11' E 036°32'0 0.0
2017-Oct-10 10:26N 45°11' E 036°32'0 0.0
2017-Oct-10 09:59N 45°11' E 036°32'0 0.0
2017-Oct-10 09:08N 45°11' E 036°32'0 0.0
2017-Oct-10 08:56N 45°11' E 036°32'0 0.0
2017-Oct-10 08:05N 45°11' E 036°32'0 0.0
2017-Oct-10 07:53N 45°11' E 036°32'0 0.0
2017-Oct-10 07:29N 45°11' E 036°32'0 0.1
2017-Oct-10 06:59N 45°11' E 036°32'0 0.1
2017-Oct-10 06:29N 45°11' E 036°32'0 0.0
2017-Oct-10 05:56N 45°11' E 036°32'0 0.0
2017-Oct-10 05:29N 45°11' E 036°32'0 0.1
2017-Oct-10 04:56N 45°11' E 036°32'0 0.0
2017-Oct-10 04:29N 45°11' E 036°32'0 0.0
2017-Oct-10 03:59N 45°11' E 036°32'0 0.0
2017-Oct-10 03:23N 45°11' E 036°32'0 0.0
2017-Oct-10 02:53N 45°11' E 036°32'0 0.0
2017-Oct-10 02:20N 45°11' E 036°32'0 0.0
2017-Oct-10 01:23N 45°11' E 036°32'0 0.0
2017-Oct-10 00:59N 45°11' E 036°32'0 0.0
2017-Oct-10 00:20N 45°11' E 036°32'0 0.0
2017-Oct-09 23:20N 45°11' E 036°32'0 0.0
2017-Oct-09 22:53N 45°11' E 036°32'0 0.0
2017-Oct-09 22:26N 45°11' E 036°32'0 0.0
2017-Oct-09 21:26N 45°11' E 036°32'0 0.0
2017-Oct-09 09:25N 45°11' E 036°32'0 0.0
2017-Oct-08 17:05N 45°11' E 036°32'0 0.0
2017-Oct-08 16:56N 45°11' E 036°32'0 0.0
2017-Oct-08 16:26N 45°11' E 036°32'0 0.0
2017-Oct-08 15:08N 45°11' E 036°32'0 0.0
2017-Oct-08 14:59N 45°11' E 036°32'0 0.0
2017-Oct-08 14:29N 45°11' E 036°32'0 0.0
2017-Oct-08 13:47N 45°11' E 036°32'0 0.0
2017-Oct-08 13:23N 45°11' E 036°32'0 0.0
2017-Oct-08 12:20N 45°11' E 036°32'0 0.0
2017-Oct-08 11:53N 45°11' E 036°32'0 0.0
2017-Oct-08 11:14N 45°11' E 036°32'0 0.0
2017-Oct-08 10:56N 45°11' E 036°32'0 0.0
2017-Oct-08 10:26N 45°11' E 036°32'0 0.0
2017-Oct-08 09:59N 45°11' E 036°32'0 0.0
2017-Oct-08 09:29N 45°11' E 036°32'  
Track history (hours):
 
Tides and Currents Weather Stations Pressure Air Temp Water Temp Dewpoint Dewpoint Depression Visibility Wind Speed Wind Dir Waves Ship Positions

Ivan Poddubny

Last reported at 2017-Oct-18 08:57 UTC. Time now 2017-Oct-18 12:56 UTC.
Position N 45°11' E 036°34'.

; draft 6 m.

Type: Ship. MMSI: 273358190.

Date/timePositionNaut miles runAvg speedWind from/ knotsBaromVisibWave heightAir tempDewpointWater temp
2017-Oct-18 08:57N 45°11' E 036°34'0 0.0
2017-Oct-18 08:21N 45°11' E 036°34'0 0.1
2017-Oct-18 07:57N 45°11' E 036°34'0 0.0
2017-Oct-18 07:30N 45°11' E 036°34'0 0.0
2017-Oct-18 07:00N 45°11' E 036°34'0 0.0
2017-Oct-18 06:30N 45°11' E 036°34'0 0.0
2017-Oct-18 06:00N 45°11' E 036°34'0 0.0
2017-Oct-18 05:30N 45°11' E 036°34'2 4.1
2017-Oct-18 04:59N 45°09' E 036°32'5 0.6
2017-Oct-17 21:57N 45°12' E 036°28'4 8.6
2017-Oct-17 21:30N 45°16' E 036°27'4 7.9
2017-Oct-17 20:58N 45°19' E 036°32'4 9.6
2017-Oct-17 20:30N 45°21' E 036°38'3 6.7
2017-Oct-17 20:00N 45°23' E 036°41'0 0.2
2017-Oct-17 19:30N 45°23' E 036°41'0 0.0
2017-Oct-17 18:57N 45°23' E 036°41'0 0.0
2017-Oct-17 18:30N 45°23' E 036°41'0 0.0
2017-Oct-17 18:00N 45°23' E 036°41'0 0.0
2017-Oct-17 17:30N 45°23' E 036°41'0 0.0
2017-Oct-17 17:00N 45°23' E 036°41'0 0.0
2017-Oct-17 16:27N 45°23' E 036°41'0 0.0
2017-Oct-17 15:57N 45°23' E 036°41'0 0.0
2017-Oct-17 15:27N 45°23' E 036°41'0 0.0
2017-Oct-17 15:00N 45°23' E 036°41'0 0.0
2017-Oct-17 14:30N 45°23' E 036°41'0 0.0
2017-Oct-17 14:00N 45°23' E 036°41'0 0.0
2017-Oct-17 13:30N 45°23' E 036°41'0 0.0
2017-Oct-17 13:00N 45°23' E 036°41'0 0.0
2017-Oct-17 12:27N 45°23' E 036°41'0 0.0
2017-Oct-17 12:00N 45°23' E 036°41'0 0.0
2017-Oct-17 11:30N 45°23' E 036°41'0 0.0
2017-Oct-17 11:00N 45°23' E 036°41'0 0.0
2017-Oct-17 10:30N 45°23' E 036°41'0 0.0
2017-Oct-17 10:00N 45°23' E 036°41'0 0.0
2017-Oct-17 09:30N 45°23' E 036°41'0 0.0
2017-Oct-17 09:00N 45°23' E 036°41'0 0.0
2017-Oct-17 08:30N 45°23' E 036°41'0 0.0
2017-Oct-17 08:00N 45°23' E 036°41'0 0.0
2017-Oct-17 07:30N 45°23' E 036°41'0 0.0
2017-Oct-17 07:00N 45°23' E 036°41'0 0.0
2017-Oct-17 06:30N 45°23' E 036°41'0 0.0
2017-Oct-17 06:00N 45°23' E 036°41'0 0.0
2017-Oct-17 05:31N 45°23' E 036°41'0 0.0
2017-Oct-17 05:00N 45°23' E 036°41'0 0.0
2017-Oct-17 04:30N 45°23' E 036°41'0 0.0
2017-Oct-17 04:00N 45°23' E 036°41'0 0.0
2017-Oct-17 03:31N 45°23' E 036°41'0 0.0
2017-Oct-17 03:00N 45°23' E 036°41'0 0.0
2017-Oct-17 02:30N 45°23' E 036°41'0 0.0
2017-Oct-17 02:00N 45°23' E 036°41'0 0.1
2017-Oct-17 01:30N 45°23' E 036°41'0 0.0
2017-Oct-17 00:59N 45°23' E 036°41'0 0.0
2017-Oct-17 00:30N 45°23' E 036°41'0 0.0
2017-Oct-17 00:00N 45°23' E 036°41'0 0.0
2017-Oct-16 23:30N 45°23' E 036°41'0 0.0
2017-Oct-16 23:00N 45°23' E 036°41'0 0.0
2017-Oct-16 22:30N 45°23' E 036°41'0 0.0
2017-Oct-16 22:00N 45°23' E 036°41'0 0.0
2017-Oct-16 21:30N 45°23' E 036°41'0 0.0
2017-Oct-16 21:00N 45°23' E 036°41'0 0.0
2017-Oct-16 20:30N 45°23' E 036°41'0 0.0
2017-Oct-16 20:00N 45°23' E 036°41'0 0.0
2017-Oct-16 19:30N 45°23' E 036°41'0 0.0
2017-Oct-16 18:59N 45°23' E 036°41'0 0.0
2017-Oct-16 18:30N 45°23' E 036°41'0 0.0
2017-Oct-16 18:00N 45°23' E 036°41'0 0.0
2017-Oct-16 17:30N 45°23' E 036°41'0 0.0
2017-Oct-16 17:00N 45°23' E 036°41'0 0.0
2017-Oct-16 16:30N 45°23' E 036°41'0 0.0
2017-Oct-16 16:00N 45°23' E 036°41'0 0.0
2017-Oct-16 15:30N 45°23' E 036°41'0 0.0
2017-Oct-16 15:00N 45°23' E 036°41'0 0.0
2017-Oct-16 14:30N 45°23' E 036°41'0 0.0
2017-Oct-16 13:30N 45°23' E 036°41'0 0.0
2017-Oct-16 13:00N 45°23' E 036°41'0 0.0
2017-Oct-16 12:30N 45°23' E 036°41'0 0.0
2017-Oct-16 12:00N 45°23' E 036°41'0 0.0
2017-Oct-16 11:31N 45°23' E 036°41'0 0.0
2017-Oct-16 11:00N 45°23' E 036°41'0 0.0
2017-Oct-16 10:30N 45°23' E 036°41'0 0.0
2017-Oct-16 09:59N 45°23' E 036°41'0 0.0
2017-Oct-16 09:30N 45°23' E 036°41'0 0.0
2017-Oct-16 09:00N 45°23' E 036°41'0 0.0
2017-Oct-16 08:30N 45°23' E 036°41'0 0.0
2017-Oct-16 08:00N 45°23' E 036°41'0 0.0
2017-Oct-16 07:29N 45°23' E 036°41'0 0.0
2017-Oct-16 07:00N 45°23' E 036°41'0 0.0
2017-Oct-16 06:30N 45°23' E 036°41'0 0.0
2017-Oct-16 06:00N 45°23' E 036°41'0 0.0
2017-Oct-16 05:30N 45°23' E 036°41'0 0.0
2017-Oct-16 05:00N 45°23' E 036°41'0 0.0
2017-Oct-16 04:30N 45°23' E 036°41'0 0.0
2017-Oct-16 04:00N 45°23' E 036°41'0 0.0
2017-Oct-16 03:31N 45°23' E 036°41'0 0.0
2017-Oct-16 03:00N 45°23' E 036°41'0 0.0
2017-Oct-16 02:30N 45°23' E 036°41'0 0.0
2017-Oct-16 02:00N 45°23' E 036°41'0 0.0
2017-Oct-16 01:29N 45°23' E 036°41'0 0.0
2017-Oct-16 01:00N 45°23' E 036°41'0 0.0
2017-Oct-16 00:30N 45°23' E 036°41'0 0.0
2017-Oct-15 23:59N 45°23' E 036°41'0 0.0
2017-Oct-15 23:30N 45°23' E 036°41'0 0.0
2017-Oct-15 23:00N 45°23' E 036°41'0 0.1
2017-Oct-15 22:30N 45°23' E 036°41'0 0.1
2017-Oct-15 22:00N 45°23' E 036°41'0 0.0
2017-Oct-15 21:30N 45°23' E 036°41'0 0.0
2017-Oct-15 20:59N 45°23' E 036°41'0 0.0
2017-Oct-15 20:30N 45°23' E 036°41'0 0.0
2017-Oct-15 20:00N 45°23' E 036°41'0 0.0
2017-Oct-15 19:30N 45°23' E 036°41'0 0.0
2017-Oct-15 19:00N 45°23' E 036°41'0 0.0
2017-Oct-15 18:30N 45°23' E 036°41'0 0.0
2017-Oct-15 17:59N 45°23' E 036°41'0 0.0
2017-Oct-15 17:30N 45°23' E 036°41'0 0.0
2017-Oct-15 17:00N 45°23' E 036°41'0 0.0
2017-Oct-15 16:30N 45°23' E 036°41'0 0.1
2017-Oct-15 16:00N 45°23' E 036°41'0 0.0
2017-Oct-15 15:30N 45°23' E 036°41'1 1.5
2017-Oct-15 15:00N 45°23' E 036°40'9 8.9
2017-Oct-15 14:00N 45°18' E 036°30'5 8.5
2017-Oct-15 13:24N 45°13' E 036°28'3 1.5
2017-Oct-15 11:43N 45°11' E 036°29'0 0.1
2017-Oct-15 11:16N 45°11' E 036°29'1 2.2
2017-Oct-15 10:58N 45°10' E 036°29'4 8.4
2017-Oct-15 10:30N 45°07' E 036°32'0 0.0
2017-Oct-15 00:22N 45°07' E 036°32'2 6.2
2017-Oct-15 00:00N 45°09' E 036°32'2 3.3
2017-Oct-14 23:30N 45°11' E 036°32'0 0.1
2017-Oct-14 22:57N 45°11' E 036°33'0 0.0
2017-Oct-14 22:18N 45°11' E 036°33'0 0.0
2017-Oct-14 22:00N 45°11' E 036°33'0 0.0
2017-Oct-14 21:12N 45°11' E 036°33'0 0.0
2017-Oct-14 20:54N 45°11' E 036°33'0 0.0
2017-Oct-14 20:30N 45°11' E 036°33'0 0.0
2017-Oct-14 19:21N 45°11' E 036°33'0 0.0
2017-Oct-14 19:00N 45°11' E 036°33'0 0.0
2017-Oct-14 18:30N 45°11' E 036°33'0 0.0
2017-Oct-14 17:21N 45°11' E 036°33'0 0.0
2017-Oct-14 17:00N 45°11' E 036°33'0 0.0
2017-Oct-14 14:24N 45°11' E 036°33'0 0.0
2017-Oct-14 13:54N 45°11' E 036°33'0 0.0
2017-Oct-14 13:30N 45°11' E 036°33'0 0.0
2017-Oct-14 12:57N 45°11' E 036°33'0 0.0
2017-Oct-14 12:00N 45°11' E 036°33'0 0.0
2017-Oct-14 11:18N 45°11' E 036°33'0 0.0
2017-Oct-14 10:51N 45°11' E 036°33'0 0.0
2017-Oct-14 10:30N 45°11' E 036°33'0 0.0
2017-Oct-14 10:00N 45°11' E 036°33'0 0.0
2017-Oct-14 07:45N 45°11' E 036°33'0 0.0
2017-Oct-14 07:24N 45°11' E 036°33'0 0.0
2017-Oct-14 07:00N 45°11' E 036°33'0 0.0
2017-Oct-14 06:30N 45°11' E 036°33'0 0.0
2017-Oct-14 06:00N 45°11' E 036°33'0 0.0
2017-Oct-14 05:24N 45°11' E 036°33'0 0.0
2017-Oct-14 05:00N 45°11' E 036°33'0 0.0
2017-Oct-14 04:30N 45°11' E 036°33'0 0.0
2017-Oct-14 03:51N 45°11' E 036°33'0 0.0
2017-Oct-14 03:18N 45°11' E 036°33'0 0.0
2017-Oct-14 02:57N 45°11' E 036°33'0 0.0
2017-Oct-14 01:27N 45°11' E 036°32'0 0.0
2017-Oct-14 01:00N 45°11' E 036°32'0 0.0
2017-Oct-14 00:27N 45°11' E 036°32'0 0.0
2017-Oct-13 23:57N 45°11' E 036°32'0 0.0
2017-Oct-13 23:30N 45°11' E 036°33'0 0.0
2017-Oct-13 02:17N 45°11' E 036°32'0 0.0
2017-Oct-13 01:56N 45°11' E 036°32'0 0.0
2017-Oct-13 01:29N 45°11' E 036°32'0 0.0
2017-Oct-12 22:20N 45°11' E 036°32'0 0.0
2017-Oct-12 19:50N 45°11' E 036°32'0 0.0
2017-Oct-12 08:20N 45°11' E 036°32'0 0.0
2017-Oct-12 07:53N 45°11' E 036°32'0 0.0
2017-Oct-12 06:32N 45°11' E 036°32'0 0.0
2017-Oct-12 06:29N 45°11' E 036°32'0 0.0
2017-Oct-12 05:59N 45°11' E 036°32'0 0.0
2017-Oct-12 05:29N 45°11' E 036°32'0 0.0
2017-Oct-12 04:59N 45°11' E 036°32'0 0.0
2017-Oct-12 04:29N 45°11' E 036°32'0 0.0
2017-Oct-12 03:35N 45°11' E 036°32'0 0.1
2017-Oct-12 03:29N 45°11' E 036°32'0 0.0
2017-Oct-12 02:23N 45°11' E 036°32'0 0.0
2017-Oct-12 01:59N 45°11' E 036°32'0 0.0
2017-Oct-12 01:20N 45°11' E 036°32'0 0.0
2017-Oct-12 00:20N 45°11' E 036°32'0 0.0
2017-Oct-11 23:59N 45°11' E 036°32'0 0.0
2017-Oct-11 23:29N 45°11' E 036°32'0 0.0
2017-Oct-11 22:26N 45°11' E 036°32'0 0.0
2017-Oct-11 21:59N 45°11' E 036°32'0 0.0
2017-Oct-11 21:23N 45°11' E 036°32'0 0.0
2017-Oct-11 20:44N 45°11' E 036°32'0 0.0
2017-Oct-11 20:29N 45°11' E 036°32'0 0.0
2017-Oct-11 19:59N 45°11' E 036°32'0 0.0
2017-Oct-11 19:29N 45°11' E 036°32'0 0.0
2017-Oct-11 18:56N 45°11' E 036°32'0 0.0
2017-Oct-11 18:14N 45°11' E 036°32'0 0.0
2017-Oct-11 17:56N 45°11' E 036°32'0 0.0
2017-Oct-11 17:14N 45°11' E 036°32'0 0.0
2017-Oct-11 16:53N 45°11' E 036°32'0 0.0
2017-Oct-10 23:59N 45°11' E 036°32'0 0.0
2017-Oct-10 23:29N 45°11' E 036°32'0 0.0
2017-Oct-10 22:53N 45°11' E 036°32'0 0.0
2017-Oct-10 22:26N 45°11' E 036°32'0 0.0
2017-Oct-10 21:59N 45°11' E 036°32'0 0.0
2017-Oct-10 21:29N 45°11' E 036°32'0 0.0
2017-Oct-10 20:56N 45°11' E 036°32'0 0.0
2017-Oct-10 20:29N 45°11' E 036°32'0 0.0
2017-Oct-10 19:59N 45°11' E 036°32'0 0.0
2017-Oct-10 19:26N 45°11' E 036°32'0 0.0
2017-Oct-10 18:56N 45°11' E 036°32'0 0.0
2017-Oct-10 18:26N 45°11' E 036°32'0 0.0
2017-Oct-10 17:56N 45°11' E 036°32'0 0.0
2017-Oct-10 17:29N 45°11' E 036°32'0 0.0
2017-Oct-10 16:56N 45°11' E 036°32'0 0.1
2017-Oct-10 16:29N 45°11' E 036°32'0 0.1
2017-Oct-10 15:47N 45°11' E 036°32'0 0.0
2017-Oct-10 15:29N 45°11' E 036°32'0 0.1
2017-Oct-10 14:59N 45°11' E 036°32'0 0.0
2017-Oct-10 11:26N 45°11' E 036°32'0 0.1
2017-Oct-10 10:59N 45°11' E 036°32'0 0.0
2017-Oct-10 10:26N 45°11' E 036°32'0 0.0
2017-Oct-10 09:59N 45°11' E 036°32'0 0.0
2017-Oct-10 09:08N 45°11' E 036°32'0 0.0
2017-Oct-10 08:56N 45°11' E 036°32'0 0.0
2017-Oct-10 08:05N 45°11' E 036°32'0 0.0
2017-Oct-10 07:53N 45°11' E 036°32'0 0.0
2017-Oct-10 07:29N 45°11' E 036°32'0 0.1
2017-Oct-10 06:59N 45°11' E 036°32'0 0.1
2017-Oct-10 06:29N 45°11' E 036°32'0 0.0
2017-Oct-10 05:56N 45°11' E 036°32'0 0.0
2017-Oct-10 05:29N 45°11' E 036°32'0 0.1
2017-Oct-10 04:56N 45°11' E 036°32'0 0.0
2017-Oct-10 04:29N 45°11' E 036°32'0 0.0
2017-Oct-10 03:59N 45°11' E 036°32'0 0.0
2017-Oct-10 03:23N 45°11' E 036°32'0 0.0
2017-Oct-10 02:53N 45°11' E 036°32'0 0.0
2017-Oct-10 02:20N 45°11' E 036°32'0 0.0
2017-Oct-10 01:23N 45°11' E 036°32'0 0.0
2017-Oct-10 00:59N 45°11' E 036°32'0 0.0
2017-Oct-10 00:20N 45°11' E 036°32'0 0.0
2017-Oct-09 23:20N 45°11' E 036°32'0 0.0
2017-Oct-09 22:53N 45°11' E 036°32'0 0.0
2017-Oct-09 22:26N 45°11' E 036°32'0 0.0
2017-Oct-09 21:26N 45°11' E 036°32'0 0.0
2017-Oct-09 09:25N 45°11' E 036°32'0 0.0
2017-Oct-08 17:05N 45°11' E 036°32'0 0.0
2017-Oct-08 16:56N 45°11' E 036°32'0 0.0
2017-Oct-08 16:26N 45°11' E 036°32'0 0.0
2017-Oct-08 15:08N 45°11' E 036°32'0 0.0
2017-Oct-08 14:59N 45°11' E 036°32'0 0.0
2017-Oct-08 14:29N 45°11' E 036°32'0 0.0
2017-Oct-08 13:47N 45°11' E 036°32'0 0.0
2017-Oct-08 13:23N 45°11' E 036°32'0 0.0
2017-Oct-08 12:20N 45°11' E 036°32'0 0.0
2017-Oct-08 11:53N 45°11' E 036°32'0 0.0
2017-Oct-08 11:14N 45°11' E 036°32'0 0.0
2017-Oct-08 10:56N 45°11' E 036°32'0 0.0
2017-Oct-08 10:26N 45°11' E 036°32'0 0.0
2017-Oct-08 09:59N 45°11' E 036°32'0 0.0
2017-Oct-08 09:29N 45°11' E 036°32'  

Dump ship's entire track history